sensor_id;sensor_type;location;lat;lon;timestamp;pressure;altitude;pressure_sealevel;temperature;humidity
52797;BME280;38666;43.348;12.584;2023-02-02T06:54:07;96259.28;;;2.51;100.00
52797;BME280;38666;43.348;12.584;2023-02-02T06:56:33;96261.56;;;2.62;100.00
52797;BME280;38666;43.348;12.584;2023-02-02T06:58:58;96263.31;;;2.79;100.00
52797;BME280;38666;43.348;12.584;2023-02-02T07:01:23;96274.78;;;3.01;100.00
52797;BME280;38666;43.348;12.584;2023-02-02T07:03:49;96277.50;;;3.26;100.00
52797;BME280;38666;43.348;12.584;2023-02-02T07:06:24;96279.66;;;3.33;100.00
52797;BME280;38666;43.348;12.584;2023-02-02T07:08:50;96278.06;;;3.32;100.00
52797;BME280;38666;43.348;12.584;2023-02-02T07:11:16;96285.72;;;3.42;100.00
52797;BME280;38666;43.348;12.584;2023-02-02T07:13:43;96282.56;;;3.53;100.00
52797;BME280;38666;43.348;12.584;2023-02-02T07:16:09;96279.63;;;3.70;100.00
52797;BME280;38666;43.348;12.584;2023-02-02T07:18:34;96275.56;;;3.89;100.00
52797;BME280;38666;43.348;12.584;2023-02-02T07:21:04;96267.41;;;4.02;100.00
52797;BME280;38666;43.348;12.584;2023-02-02T07:23:32;96269.94;;;4.23;100.00
52797;BME280;38666;43.348;12.584;2023-02-02T07:26:06;96269.66;;;4.41;100.00
52797;BME280;38666;43.348;12.584;2023-02-02T07:28:32;96265.84;;;4.58;100.00
52797;BME280;38666;43.348;12.584;2023-02-02T07:30:58;96276.91;;;4.81;100.00
52797;BME280;38666;43.348;12.584;2023-02-02T07:33:24;96274.13;;;4.94;97.84
52797;BME280;38666;43.348;12.584;2023-02-02T07:35:49;96288.19;;;5.00;95.53
52797;BME280;38666;43.348;12.584;2023-02-02T07:38:15;96273.97;;;4.58;95.18
52797;BME280;38666;43.348;12.584;2023-02-02T07:40:40;96272.69;;;4.68;95.66
52797;BME280;38666;43.348;12.584;2023-02-02T07:43:06;96294.13;;;4.89;94.03
52797;BME280;38666;43.348;12.584;2023-02-02T07:45:31;96293.34;;;5.05;93.34
52797;BME280;38666;43.348;12.584;2023-02-02T07:47:59;96300.13;;;4.99;91.34
52797;BME280;38666;43.348;12.584;2023-02-02T07:50:26;96299.25;;;4.78;92.91
52797;BME280;38666;43.348;12.584;2023-02-02T07:52:52;96309.75;;;4.96;92.58
52797;BME280;38666;43.348;12.584;2023-02-02T07:55:17;96302.50;;;5.16;92.49
52797;BME280;38666;43.348;12.584;2023-02-02T07:57:43;96308.09;;;5.24;91.00
52797;BME280;38666;43.348;12.584;2023-02-02T08:00:09;96316.13;;;5.04;90.70
52797;BME280;38666;43.348;12.584;2023-02-02T08:02:35;96320.13;;;4.94;91.33
52797;BME280;38666;43.348;12.584;2023-02-02T08:05:00;96320.03;;;4.90;92.09
52797;BME280;38666;43.348;12.584;2023-02-02T08:07:26;96326.16;;;4.58;94.63
52797;BME280;38666;43.348;12.584;2023-02-02T08:09:51;96328.13;;;4.45;96.36
52797;BME280;38666;43.348;12.584;2023-02-02T08:12:18;96322.16;;;4.68;96.80
52797;BME280;38666;43.348;12.584;2023-02-02T08:14:43;96317.97;;;5.00;96.01
52797;BME280;38666;43.348;12.584;2023-02-02T08:17:08;96316.94;;;5.53;96.37
52797;BME280;38666;43.348;12.584;2023-02-02T08:19:34;96321.19;;;5.86;93.56
52797;BME280;38666;43.348;12.584;2023-02-02T08:21:59;96328.91;;;6.04;90.66
52797;BME280;38666;43.348;12.584;2023-02-02T08:24:25;96320.16;;;6.47;88.79
52797;BME280;38666;43.348;12.584;2023-02-02T08:26:50;96338.41;;;7.56;83.35
52797;BME280;38666;43.348;12.584;2023-02-02T08:29:16;96335.41;;;8.77;75.23
52797;BME280;38666;43.348;12.584;2023-02-02T08:31:43;96335.72;;;9.48;68.74
52797;BME280;38666;43.348;12.584;2023-02-02T08:34:10;96328.50;;;10.42;63.59
52797;BME280;38666;43.348;12.584;2023-02-02T08:36:36;96328.41;;;11.09;61.61
52797;BME280;38666;43.348;12.584;2023-02-02T08:39:05;96330.00;;;11.98;54.88
52797;BME280;38666;43.348;12.584;2023-02-02T08:41:31;96326.31;;;12.63;53.22
52797;BME280;38666;43.348;12.584;2023-02-02T08:43:57;96336.38;;;13.59;50.56
52797;BME280;38666;43.348;12.584;2023-02-02T08:46:23;96334.59;;;14.65;48.34
52797;BME280;38666;43.348;12.584;2023-02-02T08:48:48;96340.41;;;15.61;45.21
52797;BME280;38666;43.348;12.584;2023-02-02T08:51:16;96332.06;;;15.13;44.59
52797;BME280;38666;43.348;12.584;2023-02-02T08:53:43;96337.13;;;15.42;44.25
52797;BME280;38666;43.348;12.584;2023-02-02T08:56:17;96338.72;;;16.59;41.12
52797;BME280;38666;43.348;12.584;2023-02-02T08:58:48;96335.94;;;15.43;42.58
52797;BME280;38666;43.348;12.584;2023-02-02T09:01:28;96336.81;;;15.09;43.56
52797;BME280;38666;43.348;12.584;2023-02-02T09:03:55;96351.00;;;13.95;44.26
52797;BME280;38666;43.348;12.584;2023-02-02T09:06:21;96358.44;;;13.38;44.87
52797;BME280;38666;43.348;12.584;2023-02-02T09:08:50;96356.97;;;12.25;47.97
52797;BME280;38666;43.348;12.584;2023-02-02T09:11:17;96356.34;;;12.96;48.40
52797;BME280;38666;43.348;12.584;2023-02-02T09:13:44;96355.69;;;13.94;46.05
52797;BME280;38666;43.348;12.584;2023-02-02T09:16:12;96359.09;;;14.10;44.28
52797;BME280;38666;43.348;12.584;2023-02-02T09:18:39;96364.28;;;14.00;44.86
52797;BME280;38666;43.348;12.584;2023-02-02T09:21:07;96364.56;;;13.67;45.18
52797;BME280;38666;43.348;12.584;2023-02-02T09:23:34;96362.66;;;12.82;47.81
52797;BME280;38666;43.348;12.584;2023-02-02T09:28:43;96371.84;;;11.84;51.08
52797;BME280;38666;43.348;12.584;2023-02-02T09:31:09;96370.66;;;11.48;53.28
52797;BME280;38666;43.348;12.584;2023-02-02T09:33:35;96367.13;;;11.55;53.17
52797;BME280;38666;43.348;12.584;2023-02-02T09:36:26;96363.63;;;11.65;52.97
52797;BME280;38666;43.348;12.584;2023-02-02T09:38:52;96371.41;;;11.41;54.23
52797;BME280;38666;43.348;12.584;2023-02-02T09:52:11;96383.19;;;12.11;53.03
52797;BME280;38666;43.348;12.584;2023-02-02T09:54:45;96382.72;;;12.53;52.53
52797;BME280;38666;43.348;12.584;2023-02-02T09:57:18;96380.75;;;12.57;51.55
52797;BME280;38666;43.348;12.584;2023-02-02T09:59:48;96379.25;;;11.94;54.15
52797;BME280;38666;43.348;12.584;2023-02-02T10:02:24;96385.53;;;13.92;49.96
52797;BME280;38666;43.348;12.584;2023-02-02T10:05:00;96381.19;;;15.11;46.85
52797;BME280;38666;43.348;12.584;2023-02-02T10:07:33;96394.25;;;14.29;46.40
52797;BME280;38666;43.348;12.584;2023-02-02T10:10:04;96396.53;;;14.73;46.13
52797;BME280;38666;43.348;12.584;2023-02-02T10:12:43;96392.06;;;14.52;45.80
52797;BME280;38666;43.348;12.584;2023-02-02T10:15:20;96392.56;;;13.97;48.06
52797;BME280;38666;43.348;12.584;2023-02-02T10:17:54;96388.13;;;13.57;48.43
52797;BME280;38666;43.348;12.584;2023-02-02T10:23:07;96373.94;;;12.98;50.02
52797;BME280;38666;43.348;12.584;2023-02-02T10:25:36;96366.59;;;12.70;51.29
52797;BME280;38666;43.348;12.584;2023-02-02T10:28:16;96372.13;;;12.62;51.02
52797;BME280;38666;43.348;12.584;2023-02-02T10:30:51;96365.22;;;13.22;49.89
52797;BME280;38666;43.348;12.584;2023-02-02T10:36:05;96367.88;;;13.93;48.14
52797;BME280;38666;43.348;12.584;2023-02-02T10:41:17;96366.78;;;13.23;49.02
52797;BME280;38666;43.348;12.584;2023-02-02T10:49:32;96353.72;;;18.36;40.06
52797;BME280;38666;43.348;12.584;2023-02-02T10:54:52;96348.41;;;19.15;35.79
52797;BME280;38666;43.348;12.584;2023-02-02T10:57:51;96350.09;;;18.82;36.98
52797;BME280;38666;43.348;12.584;2023-02-02T11:00:38;96358.56;;;21.34;32.54
52797;BME280;38666;43.348;12.584;2023-02-02T11:03:08;96345.91;;;20.56;33.51
52797;BME280;38666;43.348;12.584;2023-02-02T11:05:35;96346.78;;;22.59;31.32
52797;BME280;38666;43.348;12.584;2023-02-02T11:08:24;96343.31;;;25.08;27.48
52797;BME280;38666;43.348;12.584;2023-02-02T11:10:54;96338.38;;;25.48;25.31
52797;BME280;38666;43.348;12.584;2023-02-02T11:13:31;96334.28;;;23.94;27.34
52797;BME280;38666;43.348;12.584;2023-02-02T11:18:42;96324.63;;;26.01;24.85
52797;BME280;38666;43.348;12.584;2023-02-02T11:21:25;96308.78;;;25.41;25.79
52797;BME280;38666;43.348;12.584;2023-02-02T11:26:47;96310.59;;;27.93;22.40
52797;BME280;38666;43.348;12.584;2023-02-02T11:29:17;96307.28;;;24.64;26.09
52797;BME280;38666;43.348;12.584;2023-02-02T11:31:45;96303.44;;;23.98;27.01
52797;BME280;38666;43.348;12.584;2023-02-02T11:34:26;96297.94;;;24.68;26.42
52797;BME280;38666;43.348;12.584;2023-02-02T11:39:25;96303.66;;;25.91;24.57
52797;BME280;38666;43.348;12.584;2023-02-02T11:41:58;96298.25;;;26.08;23.56
52797;BME280;38666;43.348;12.584;2023-02-02T11:44:26;96293.81;;;23.40;26.93
52797;BME280;38666;43.348;12.584;2023-02-02T11:46:52;96285.09;;;24.46;25.54
52797;BME280;38666;43.348;12.584;2023-02-02T11:49:19;96281.72;;;24.02;26.20
52797;BME280;38666;43.348;12.584;2023-02-02T11:52:02;96268.44;;;23.97;26.16
52797;BME280;38666;43.348;12.584;2023-02-02T11:54:33;96283.22;;;24.52;26.44
52797;BME280;38666;43.348;12.584;2023-02-02T11:57:02;96265.97;;;26.07;23.73
52797;BME280;38666;43.348;12.584;2023-02-02T11:59:36;96257.00;;;24.10;25.97
52797;BME280;38666;43.348;12.584;2023-02-02T12:04:54;96262.41;;;24.13;25.64
52797;BME280;38666;43.348;12.584;2023-02-02T12:07:30;96269.16;;;23.24;26.97
52797;BME280;38666;43.348;12.584;2023-02-02T12:09:59;96252.94;;;23.96;25.94
52797;BME280;38666;43.348;12.584;2023-02-02T12:15:24;96251.34;;;24.04;25.68
52797;BME280;38666;43.348;12.584;2023-02-02T12:18:40;96246.25;;;24.57;24.66
52797;BME280;38666;43.348;12.584;2023-02-02T12:21:33;96246.16;;;22.05;27.99
52797;BME280;38666;43.348;12.584;2023-02-02T12:29:50;96225.47;;;24.03;25.68
52797;BME280;38666;43.348;12.584;2023-02-02T12:32:22;96232.28;;;24.42;25.43
52797;BME280;38666;43.348;12.584;2023-02-02T12:34:58;96227.56;;;24.63;25.14
52797;BME280;38666;43.348;12.584;2023-02-02T12:37:39;96225.56;;;24.09;25.24
52797;BME280;38666;43.348;12.584;2023-02-02T12:45:54;96216.69;;;27.94;20.91
52797;BME280;38666;43.348;12.584;2023-02-02T12:49:20;96216.09;;;27.67;20.91
52797;BME280;38666;43.348;12.584;2023-02-02T12:51:37;96218.28;;;27.51;21.09
52797;BME280;38666;43.348;12.584;2023-02-02T12:57:07;96208.41;;;25.79;22.20
52797;BME280;38666;43.348;12.584;2023-02-02T13:12:29;96189.81;;;28.54;19.88
52797;BME280;38666;43.348;12.584;2023-02-02T13:15:02;96188.53;;;29.84;18.27
52797;BME280;38666;43.348;12.584;2023-02-02T13:17:42;96192.81;;;30.02;18.72
52797;BME280;38666;43.348;12.584;2023-02-02T13:20:22;96184.38;;;30.75;18.06
52797;BME280;38666;43.348;12.584;2023-02-02T13:22:53;96191.84;;;31.03;17.69
52797;BME280;38666;43.348;12.584;2023-02-02T13:25:25;96198.19;;;29.29;19.14
52797;BME280;38666;43.348;12.584;2023-02-02T13:27:52;96196.53;;;27.35;21.55
52797;BME280;38666;43.348;12.584;2023-02-02T13:30:27;96184.38;;;26.67;21.95
52797;BME280;38666;43.348;12.584;2023-02-02T13:32:57;96196.78;;;27.81;20.91
52797;BME280;38666;43.348;12.584;2023-02-02T13:35:30;96194.97;;;24.15;24.51
52797;BME280;38666;43.348;12.584;2023-02-02T13:38:27;96201.28;;;22.59;26.12
52797;BME280;38666;43.348;12.584;2023-02-02T13:41:06;96192.69;;;22.29;26.93
52797;BME280;38666;43.348;12.584;2023-02-02T13:46:28;96182.31;;;23.25;26.29
52797;BME280;38666;43.348;12.584;2023-02-02T14:05:26;96188.44;;;25.66;22.04
52797;BME280;38666;43.348;12.584;2023-02-02T14:08:19;96185.47;;;25.54;21.96
52797;BME280;38666;43.348;12.584;2023-02-02T14:13:23;96192.81;;;29.31;18.46
52797;BME280;38666;43.348;12.584;2023-02-02T14:16:21;96188.78;;;26.00;22.59
52797;BME280;38666;43.348;12.584;2023-02-02T14:24:01;96191.59;;;28.57;19.58
52797;BME280;38666;43.348;12.584;2023-02-02T14:26:57;96195.66;;;28.56;19.92
52797;BME280;38666;43.348;12.584;2023-02-02T14:37:44;96205.09;;;22.18;27.91
52797;BME280;38666;43.348;12.584;2023-02-02T14:45:46;96207.34;;;24.38;23.65
52797;BME280;38666;43.348;12.584;2023-02-02T14:48:22;96216.59;;;26.57;21.85
52797;BME280;38666;43.348;12.584;2023-02-02T14:50:57;96208.88;;;25.57;22.57
52797;BME280;38666;43.348;12.584;2023-02-02T14:53:24;96216.59;;;24.45;23.99
52797;BME280;38666;43.348;12.584;2023-02-02T14:56:04;96220.22;;;22.17;27.49
52797;BME280;38666;43.348;12.584;2023-02-02T15:04:23;96234.38;;;23.43;27.01
52797;BME280;38666;43.348;12.584;2023-02-02T15:06:50;96225.81;;;24.81;25.34
52797;BME280;38666;43.348;12.584;2023-02-02T15:14:35;96237.88;;;21.26;30.23
52797;BME280;38666;43.348;12.584;2023-02-02T15:22:34;96235.38;;;21.28;29.98
52797;BME280;38666;43.348;12.584;2023-02-02T15:25:12;96242.28;;;20.05;32.04
52797;BME280;38666;43.348;12.584;2023-02-02T15:27:45;96239.91;;;21.44;30.24
52797;BME280;38666;43.348;12.584;2023-02-02T15:30:16;96248.22;;;20.93;30.81
52797;BME280;38666;43.348;12.584;2023-02-02T15:32:42;96249.59;;;21.90;29.78
52797;BME280;38666;43.348;12.584;2023-02-02T15:35:18;96247.72;;;22.34;28.83
52797;BME280;38666;43.348;12.584;2023-02-02T15:37:49;96252.19;;;23.03;28.06
52797;BME280;38666;43.348;12.584;2023-02-02T15:40:22;96254.22;;;23.36;27.80
52797;BME280;38666;43.348;12.584;2023-02-02T15:42:53;96248.84;;;21.39;30.21
52797;BME280;38666;43.348;12.584;2023-02-02T15:47:53;96254.31;;;21.11;30.45
52797;BME280;38666;43.348;12.584;2023-02-02T15:50:19;96257.81;;;19.41;33.48
52797;BME280;38666;43.348;12.584;2023-02-02T15:52:47;96259.19;;;20.75;31.51
52797;BME280;38666;43.348;12.584;2023-02-02T15:55:43;96260.97;;;19.30;33.56
52797;BME280;38666;43.348;12.584;2023-02-02T16:00:58;96277.56;;;15.56;41.27
52797;BME280;38666;43.348;12.584;2023-02-02T16:03:32;96270.44;;;15.58;41.10
52797;BME280;38666;43.348;12.584;2023-02-02T16:06:03;96279.38;;;14.87;43.13
52797;BME280;38666;43.348;12.584;2023-02-02T16:08:31;96281.84;;;14.07;44.96
52797;BME280;38666;43.348;12.584;2023-02-02T16:11:06;96291.59;;;13.70;45.83
52797;BME280;38666;43.348;12.584;2023-02-02T16:13:32;96282.81;;;13.40;46.63
52797;BME280;38666;43.348;12.584;2023-02-02T16:16:00;96289.53;;;13.32;46.89
52797;BME280;38666;43.348;12.584;2023-02-02T16:18:26;96289.59;;;13.21;47.47
52797;BME280;38666;43.348;12.584;2023-02-02T16:20:53;96293.38;;;12.81;49.20
52797;BME280;38666;43.348;12.584;2023-02-02T16:23:30;96287.66;;;12.43;50.23
52797;BME280;38666;43.348;12.584;2023-02-02T16:25:58;96297.53;;;12.07;51.36
52797;BME280;38666;43.348;12.584;2023-02-02T16:28:25;96303.75;;;12.30;50.97
52797;BME280;38666;43.348;12.584;2023-02-02T16:30:51;96308.81;;;12.38;50.84
52797;BME280;38666;43.348;12.584;2023-02-02T16:33:37;96331.94;;;12.26;51.31
52797;BME280;38666;43.348;12.584;2023-02-02T16:36:18;96333.13;;;12.11;51.89
52797;BME280;38666;43.348;12.584;2023-02-02T16:38:44;96324.13;;;12.07;52.46
52797;BME280;38666;43.348;12.584;2023-02-02T16:41:27;96340.94;;;11.76;52.91
52797;BME280;38666;43.348;12.584;2023-02-02T16:43:53;96337.84;;;11.55;54.31
52797;BME280;38666;43.348;12.584;2023-02-02T16:46:43;96323.75;;;11.50;54.88
52797;BME280;38666;43.348;12.584;2023-02-02T16:49:22;96323.34;;;11.40;55.29
52797;BME280;38666;43.348;12.584;2023-02-02T16:52:08;96325.69;;;11.27;55.74
52797;BME280;38666;43.348;12.584;2023-02-02T16:54:34;96324.50;;;11.17;56.05
52797;BME280;38666;43.348;12.584;2023-02-02T16:57:02;96338.97;;;11.18;56.16
52797;BME280;38666;43.348;12.584;2023-02-02T16:59:31;96345.56;;;11.13;56.81
52797;BME280;38666;43.348;12.584;2023-02-02T17:02:00;96341.28;;;11.05;56.73
52797;BME280;38666;43.348;12.584;2023-02-02T17:04:28;96347.50;;;10.94;57.20
52797;BME280;38666;43.348;12.584;2023-02-02T17:07:03;96347.84;;;10.82;57.65
52797;BME280;38666;43.348;12.584;2023-02-02T17:09:33;96356.00;;;10.75;58.23
52797;BME280;38666;43.348;12.584;2023-02-02T17:12:23;96354.75;;;10.54;59.29
52797;BME280;38666;43.348;12.584;2023-02-02T17:14:55;96348.50;;;10.57;59.36
52797;BME280;38666;43.348;12.584;2023-02-02T17:17:22;96346.47;;;10.43;59.79
52797;BME280;38666;43.348;12.584;2023-02-02T17:19:47;96348.34;;;10.31;60.30
52797;BME280;38666;43.348;12.584;2023-02-02T17:22:14;96345.94;;;10.19;60.89
52797;BME280;38666;43.348;12.584;2023-02-02T17:24:43;96355.28;;;10.14;61.44
52797;BME280;38666;43.348;12.584;2023-02-02T17:27:15;96359.09;;;10.02;61.57
52797;BME280;38666;43.348;12.584;2023-02-02T17:29:43;96349.75;;;10.03;62.01
52797;BME280;38666;43.348;12.584;2023-02-02T17:32:12;96359.06;;;9.95;62.36
52797;BME280;38666;43.348;12.584;2023-02-02T17:34:37;96355.84;;;9.82;62.73
52797;BME280;38666;43.348;12.584;2023-02-02T17:37:03;96360.44;;;9.70;63.59
52797;BME280;38666;43.348;12.584;2023-02-02T17:39:28;96367.84;;;9.73;63.69
52797;BME280;38666;43.348;12.584;2023-02-02T17:41:54;96362.75;;;9.68;63.78
52797;BME280;38666;43.348;12.584;2023-02-02T17:44:19;96383.69;;;9.57;64.57
52797;BME280;38666;43.348;12.584;2023-02-02T17:46:45;96388.25;;;9.45;65.07
52797;BME280;38666;43.348;12.584;2023-02-02T17:49:10;96379.16;;;9.30;65.71
52797;BME280;38666;43.348;12.584;2023-02-02T17:51:36;96381.09;;;9.30;65.85
52797;BME280;38666;43.348;12.584;2023-02-02T17:54:12;96391.19;;;9.25;66.01
52797;BME280;38666;43.348;12.584;2023-02-02T17:56:38;96397.31;;;9.15;66.67
52797;BME280;38666;43.348;12.584;2023-02-02T17:59:04;96393.72;;;9.07;67.91
52797;BME280;38666;43.348;12.584;2023-02-02T18:01:29;96392.81;;;8.99;68.12
52797;BME280;38666;43.348;12.584;2023-02-02T18:03:55;96398.59;;;8.94;68.17
52797;BME280;38666;43.348;12.584;2023-02-02T18:06:21;96396.97;;;8.86;68.30
52797;BME280;38666;43.348;12.584;2023-02-02T18:08:46;96400.75;;;8.77;69.16
52797;BME280;38666;43.348;12.584;2023-02-02T18:11:12;96403.81;;;8.72;69.54
52797;BME280;38666;43.348;12.584;2023-02-02T18:13:40;96397.16;;;8.70;70.08
52797;BME280;38666;43.348;12.584;2023-02-02T18:16:09;96399.94;;;8.73;70.17
52797;BME280;38666;43.348;12.584;2023-02-02T18:18:35;96390.53;;;8.67;70.29
52797;BME280;38666;43.348;12.584;2023-02-02T18:21:00;96395.97;;;8.67;70.25
52797;BME280;38666;43.348;12.584;2023-02-02T18:23:27;96401.47;;;8.71;70.82
52797;BME280;38666;43.348;12.584;2023-02-02T18:25:53;96395.09;;;8.59;70.86
52797;BME280;38666;43.348;12.584;2023-02-02T18:28:18;96395.75;;;8.52;71.20
52797;BME280;38666;43.348;12.584;2023-02-02T18:30:45;96397.69;;;8.52;71.67
52797;BME280;38666;43.348;12.584;2023-02-02T18:33:12;96400.34;;;8.48;72.08
52797;BME280;38666;43.348;12.584;2023-02-02T18:35:41;96397.94;;;8.43;71.77
52797;BME280;38666;43.348;12.584;2023-02-02T18:38:06;96398.06;;;8.23;72.58
52797;BME280;38666;43.348;12.584;2023-02-02T18:40:32;96409.25;;;8.18;73.06
52797;BME280;38666;43.348;12.584;2023-02-02T18:42:57;96403.72;;;8.11;73.44
52797;BME280;38666;43.348;12.584;2023-02-02T18:45:23;96410.00;;;8.15;73.25
52797;BME280;38666;43.348;12.584;2023-02-02T18:47:48;96410.69;;;8.08;73.67
52797;BME280;38666;43.348;12.584;2023-02-02T18:50:14;96410.56;;;8.01;74.52
